Time;durP1;ratioP1;P1;durP2;ratioP2;P2;SDS_P1;SDS_P2;PMS_P1;PMS_P2;Temp;Humidity;BMP_temperature;BMP_pressure;BME280_temperature;BME280_humidity;BME280_pressure;Samples;Min_cycle;Max_cycle;Signal;HPM_P1;HPM_P2
2020/12/04 06:03:59;;;;;;;26.92;12.82;;;21.30;42.80;;;;;;5091930;27;20408;-77
2020/12/04 06:06:26;;;;;;;26.15;12.52;;;21.30;43.30;;;;;;5070004;28;20044;-77
2020/12/04 06:08:56;;;;;;;27.27;12.05;;;21.40;43.40;;;;;;5068410;28;20045;-76
2020/12/04 06:11:25;;;;;;;25.15;11.57;;;21.40;43.40;;;;;;5049841;28;20450;-76
2020/12/04 06:13:53;;;;;;;30.58;13.65;;;21.40;43.30;;;;;;5049886;28;20063;-77
2020/12/04 06:16:20;;;;;;;25.88;12.02;;;21.40;43.10;;;;;;5048607;28;20041;-77
2020/12/04 06:18:46;;;;;;;23.42;11.85;;;21.50;43.00;;;;;;5048854;28;20498;-77
2020/12/04 06:21:13;;;;;;;28.70;12.73;;;21.50;42.90;;;;;;5049732;28;20049;-75
2020/12/04 06:24:06;;;;;;;21.98;12.15;;;21.50;42.70;;;;;;5050213;28;20498;-74
2020/12/04 06:26:54;;;;;;;27.77;12.05;;;21.60;42.50;;;;;;5069063;28;20064;-77
2020/12/04 06:29:20;;;;;;;24.35;11.98;;;21.60;42.30;;;;;;5050131;28;20045;-79
2020/12/04 06:31:47;;;;;;;24.73;12.38;;;21.60;42.30;;;;;;5063083;28;20044;-78
2020/12/04 06:34:18;;;;;;;21.85;11.45;;;21.70;42.50;;;;;;5053196;28;20049;-80
2020/12/04 06:36:46;;;;;;;26.27;11.35;;;21.70;42.60;;;;;;5055307;28;20056;-81
2020/12/04 06:39:31;;;;;;;25.23;11.55;;;21.70;42.60;;;;;;5068107;28;20053;-81
2020/12/04 06:41:59;;;;;;;26.88;11.32;;;21.70;42.70;;;;;;5069733;28;20040;-81
2020/12/04 06:44:31;;;;;;;23.15;11.18;;;21.70;42.80;;;;;;5068742;28;20064;-80
2020/12/04 06:46:59;;;;;;;19.55;10.63;;;21.80;42.90;;;;;;5062004;28;20102;-79
2020/12/04 06:49:35;;;;;;;23.13;10.60;;;21.70;42.80;;;;;;5049552;28;20047;-79
2020/12/04 06:52:13;;;;;;;22.92;11.32;;;21.70;42.80;;;;;;5068081;28;20056;-80
2020/12/04 06:54:45;;;;;;;21.58;11.00;;;21.70;42.80;;;;;;5051910;28;20052;-79
2020/12/04 06:57:13;;;;;;;19.20;10.70;;;21.70;42.70;;;;;;5064140;28;20489;-79
2020/12/04 06:59:42;;;;;;;25.35;12.43;;;21.70;42.70;;;;;;5065033;28;20049;-80
2020/12/04 07:02:11;;;;;;;20.50;11.27;;;21.70;42.70;;;;;;5064764;28;20045;-81
2020/12/04 07:04:40;;;;;;;20.53;10.37;;;21.60;42.60;;;;;;5063950;28;20088;-79
2020/12/04 07:07:28;;;;;;;22.20;11.80;;;21.60;42.70;;;;;;5047704;28;20045;-80
2020/12/04 07:10:04;;;;;;;22.00;11.85;;;21.60;42.70;;;;;;5077796;28;20056;-78
2020/12/04 07:12:31;;;;;;;20.50;10.55;;;21.60;42.80;;;;;;5051854;28;20049;-78
2020/12/04 07:14:59;;;;;;;22.58;11.13;;;21.50;42.70;;;;;;5036829;28;20046;-77
2020/12/04 07:17:30;;;;;;;19.90;11.70;;;21.50;42.70;;;;;;5038687;28;20135;-78
2020/12/04 07:20:01;;;;;;;19.30;11.60;;;21.50;42.70;;;;;;5054333;28;20051;-78
2020/12/04 07:22:28;;;;;;;22.85;11.48;;;21.50;42.70;;;;;;5036326;28;20049;-78
2020/12/04 07:24:56;;;;;;;19.48;11.27;;;21.40;42.70;;;;;;5035534;28;20057;-78
2020/12/04 07:27:29;;;;;;;25.17;12.77;;;21.40;42.80;;;;;;5034214;28;20050;-79
2020/12/04 07:29:56;;;;;;;26.30;12.43;;;21.40;42.80;;;;;;5040454;28;20065;-79
2020/12/04 07:32:24;;;;;;;19.35;11.13;;;21.30;42.70;;;;;;5047609;28;20092;-79
2020/12/04 07:34:51;;;;;;;18.05;11.85;;;21.30;42.70;;;;;;5034523;28;20176;-77
2020/12/04 07:37:18;;;;;;;18.20;11.63;;;21.30;42.70;;;;;;5035169;28;20518;-78
2020/12/04 07:39:45;;;;;;;18.50;11.63;;;21.30;42.70;;;;;;5035554;28;20041;-78
2020/12/04 07:42:13;;;;;;;25.38;12.50;;;21.30;42.80;;;;;;5033915;28;20556;-78
2020/12/04 07:44:44;;;;;;;20.60;12.23;;;21.20;42.70;;;;;;5035577;28;20135;-78
2020/12/04 07:47:14;;;;;;;21.88;12.43;;;21.20;42.80;;;;;;5046023;28;20053;-78
2020/12/04 07:49:53;;;;;;;20.23;11.63;;;21.20;42.80;;;;;;5033853;28;20057;-77
2020/12/04 07:52:27;;;;;;;18.75;10.77;;;21.20;42.80;;;;;;5044604;28;20409;-77
2020/12/04 07:54:59;;;;;;;22.80;13.02;;;21.20;42.80;;;;;;5051120;28;20046;-78
2020/12/04 07:57:35;;;;;;;19.45;10.95;;;21.20;42.80;;;;;;5050343;28;20041;-77
2020/12/04 08:00:07;;;;;;;21.92;12.18;;;21.10;42.70;;;;;;5055018;28;20127;-78
2020/12/04 08:02:34;;;;;;;20.38;11.75;;;21.10;42.80;;;;;;5054556;28;20063;-78
2020/12/04 08:05:01;;;;;;;18.83;11.80;;;21.10;42.80;;;;;;5046184;28;20068;-79
2020/12/04 08:07:29;;;;;;;21.35;12.23;;;21.10;42.70;;;;;;5034703;28;20054;-75
2020/12/04 08:09:56;;;;;;;20.63;12.38;;;21.10;42.70;;;;;;5040439;28;20050;-72
2020/12/04 08:12:32;;;;;;;23.90;11.95;;;21.10;42.60;;;;;;5034345;28;20050;-74
2020/12/04 08:15:01;;;;;;;23.23;11.85;;;21.10;42.50;;;;;;5033432;28;20045;-78
2020/12/04 08:17:32;;;;;;;20.10;13.25;;;21.10;42.40;;;;;;5034208;28;20491;-79
2020/12/04 08:19:59;;;;;;;19.40;12.00;;;21.20;42.30;;;;;;5034447;28;20049;-81
2020/12/04 08:22:28;;;;;;;20.33;12.43;;;21.20;42.30;;;;;;5034314;28;20042;-78
2020/12/04 08:25:04;;;;;;;22.38;12.80;;;21.20;42.20;;;;;;5033259;28;20127;-77
2020/12/04 08:27:40;;;;;;;19.45;12.10;;;21.30;42.10;;;;;;5032839;28;20132;-79
2020/12/04 08:30:21;;;;;;;22.05;12.77;;;21.30;42.00;;;;;;5033013;28;20056;-82
2020/12/04 08:32:53;;;;;;;19.75;12.38;;;21.30;41.90;;;;;;5033214;28;20482;-78
2020/12/04 08:35:33;;;;;;;21.58;11.57;;;21.30;41.80;;;;;;5032899;28;20068;-80
2020/12/04 08:38:07;;;;;;;22.00;12.05;;;21.40;41.90;;;;;;5033125;28;20059;-80
2020/12/04 08:40:35;;;;;;;20.70;12.38;;;21.40;41.80;;;;;;5034277;28;20045;-81
2020/12/04 08:43:09;;;;;;;20.42;12.68;;;21.40;41.70;;;;;;5051666;28;20054;-79
2020/12/04 08:45:37;;;;;;;21.67;12.63;;;21.40;41.60;;;;;;5051221;28;20129;-80
2020/12/04 08:48:08;;;;;;;19.02;11.80;;;21.50;41.70;;;;;;5053895;28;20049;-79
2020/12/04 08:50:43;;;;;;;21.02;11.80;;;21.40;41.60;;;;;;5044183;28;20053;-78
2020/12/04 08:53:11;;;;;;;18.58;12.52;;;21.40;41.50;;;;;;5036790;28;20523;-78
2020/12/04 08:55:37;;;;;;;26.77;12.80;;;21.50;41.60;;;;;;5042917;28;20047;-77
2020/12/04 08:58:04;;;;;;;26.42;13.43;;;21.50;41.50;;;;;;5053421;28;20429;-77
2020/12/04 09:00:32;;;;;;;22.70;13.35;;;21.50;41.50;;;;;;5052589;28;20084;-75
2020/12/04 09:03:00;;;;;;;23.08;12.73;;;21.50;41.50;;;;;;5052205;28;20103;-76
2020/12/04 09:05:27;;;;;;;23.15;12.68;;;21.50;41.40;;;;;;5041617;28;20055;-80
2020/12/04 09:07:53;;;;;;;19.90;12.82;;;21.50;41.40;;;;;;5050152;28;20049;-76
2020/12/04 09:10:20;;;;;;;23.17;13.18;;;21.50;41.40;;;;;;5041268;28;20380;-79
2020/12/04 09:12:48;;;;;;;23.73;13.95;;;21.50;41.30;;;;;;5051261;28;20049;-78
2020/12/04 09:15:17;;;;;;;22.10;12.27;;;21.60;41.30;;;;;;5040979;28;20050;-78
2020/12/04 09:17:44;;;;;;;20.25;11.50;;;21.60;41.30;;;;;;5032124;28;20042;-77
2020/12/04 09:20:13;;;;;;;22.20;12.25;;;21.60;41.30;;;;;;5033502;28;20060;-78
2020/12/04 09:22:39;;;;;;;21.35;12.75;;;21.60;41.30;;;;;;5032412;28;20049;-81
2020/12/04 09:25:08;;;;;;;23.63;12.55;;;21.60;41.20;;;;;;5033329;28;20053;-79
2020/12/04 09:27:36;;;;;;;22.85;13.32;;;21.60;41.20;;;;;;5038770;28;20064;-78
2020/12/04 09:30:07;;;;;;;21.90;13.40;;;21.60;41.20;;;;;;5052682;28;20569;-78
2020/12/04 09:32:34;;;;;;;23.50;12.55;;;21.60;41.10;;;;;;5033241;28;20461;-78
2020/12/04 09:35:01;;;;;;;19.70;12.60;;;21.70;41.20;;;;;;5051739;28;20213;-79
2020/12/04 09:37:30;;;;;;;24.65;12.95;;;21.70;41.20;;;;;;5052894;28;20402;-79
2020/12/04 09:40:10;;;;;;;28.48;13.50;;;21.70;41.20;;;;;;5037300;28;20049;-78
2020/12/04 09:42:37;;;;;;;21.73;14.38;;;21.70;41.20;;;;;;5035028;28;20060;-79
2020/12/04 09:45:06;;;;;;;20.67;12.82;;;21.70;41.10;;;;;;5046145;28;20049;-79
2020/12/04 09:47:34;;;;;;;23.25;13.23;;;21.70;41.10;;;;;;5033346;28;20050;-78
2020/12/04 09:50:01;;;;;;;19.83;13.07;;;21.70;41.10;;;;;;5049668;28;20048;-81
2020/12/04 09:52:28;;;;;;;21.95;13.20;;;21.70;41.10;;;;;;5041331;28;20132;-79
2020/12/04 09:54:56;;;;;;;22.55;13.07;;;21.80;41.10;;;;;;5030920;28;20041;-79
2020/12/04 09:57:23;;;;;;;19.58;12.30;;;21.80;41.10;;;;;;5046762;28;20128;-80
2020/12/04 09:59:50;;;;;;;19.00;11.80;;;21.80;41.10;;;;;;5051519;28;20132;-80
2020/12/04 10:02:17;;;;;;;25.25;13.57;;;21.80;41.10;;;;;;5051667;28;20059;-79
2020/12/04 10:04:43;;;;;;;20.13;13.15;;;21.80;41.00;;;;;;5052467;28;20541;-79
2020/12/04 10:07:10;;;;;;;20.08;12.85;;;21.80;41.50;;;;;;5039548;28;20119;-78
2020/12/04 10:09:38;;;;;;;24.08;14.55;;;21.80;41.00;;;;;;5037641;28;20383;-79
2020/12/04 10:12:05;;;;;;;22.45;14.50;;;21.80;40.90;;;;;;5030487;28;20056;-79
2020/12/04 10:14:34;;;;;;;24.58;13.70;;;21.80;40.70;;;;;;5031675;28;20142;-80
2020/12/04 10:17:01;;;;;;;23.50;14.80;;;21.80;40.60;;;;;;5031670;28;20045;-80
2020/12/04 10:19:29;;;;;;;21.17;13.45;;;21.80;40.60;;;;;;5032541;28;20137;-81
2020/12/04 10:21:56;;;;;;;22.70;13.63;;;21.90;40.60;;;;;;5031801;28;20045;-80
2020/12/04 10:24:22;;;;;;;23.88;13.38;;;21.90;40.60;;;;;;5032810;28;20061;-79
2020/12/04 10:26:50;;;;;;;22.45;13.30;;;21.90;40.60;;;;;;5046493;28;20045;-80
2020/12/04 10:29:18;;;;;;;22.52;14.25;;;21.90;40.60;;;;;;5045722;28;20059;-81
2020/12/04 10:31:45;;;;;;;21.38;13.85;;;21.90;40.60;;;;;;5032124;28;20088;-80
2020/12/04 10:34:12;;;;;;;22.70;13.20;;;21.90;40.50;;;;;;5031267;28;20141;-81
2020/12/04 10:36:40;;;;;;;20.58;12.68;;;21.90;40.50;;;;;;5031456;28;20414;-81
2020/12/04 10:39:08;;;;;;;22.50;13.38;;;22.00;40.60;;;;;;5031519;28;20045;-79
2020/12/04 10:41:36;;;;;;;24.17;13.98;;;22.00;40.60;;;;;;5031273;28;20049;-82
2020/12/04 10:44:04;;;;;;;21.60;13.20;;;22.00;40.60;;;;;;5032734;28;20052;-80
2020/12/04 10:46:32;;;;;;;22.55;13.55;;;22.00;40.50;;;;;;5034373;28;20524;-81
2020/12/04 10:48:59;;;;;;;20.67;13.25;;;22.00;40.50;;;;;;5051730;28;20501;-80
2020/12/04 10:51:26;;;;;;;24.52;13.82;;;22.00;40.50;;;;;;5055977;28;20052;-81
2020/12/04 10:53:52;;;;;;;24.05;13.93;;;22.00;40.50;;;;;;5047663;28;20060;-81
2020/12/04 10:56:23;;;;;;;21.02;13.88;;;22.00;40.50;;;;;;5043434;28;20053;-81
2020/12/04 10:58:50;;;;;;;24.10;13.60;;;22.00;40.50;;;;;;5045705;28;20073;-81
2020/12/04 11:01:32;;;;;;;20.95;13.43;;;22.00;40.50;;;;;;5034837;28;20486;-80
2020/12/04 11:06:26;;;;;;;22.25;13.95;;;22.10;40.50;;;;;;5049164;28;20072;-81
2020/12/04 11:08:53;;;;;;;26.98;14.65;;;22.10;40.50;;;;;;5046993;28;20049;-80
2020/12/04 11:11:26;;;;;;;20.75;13.68;;;22.10;40.50;;;;;;5036205;28;20056;-80
2020/12/04 11:13:54;;;;;;;22.63;13.10;;;22.10;40.50;;;;;;5018245;28;20057;-79
2020/12/04 11:16:20;;;;;;;21.45;13.60;;;22.10;40.50;;;;;;5034677;28;20041;-80
2020/12/04 11:18:47;;;;;;;23.20;13.85;;;22.10;40.50;;;;;;5049134;28;20045;-79
2020/12/04 11:21:13;;;;;;;20.38;13.77;;;22.10;40.50;;;;;;5055949;28;20502;-80
2020/12/04 11:23:40;;;;;;;20.50;12.93;;;22.10;40.50;;;;;;5034838;28;20053;-77
2020/12/04 11:26:06;;;;;;;22.35;13.50;;;22.10;40.40;;;;;;5034451;28;20062;-76
2020/12/04 11:28:34;;;;;;;23.15;13.85;;;22.10;40.40;;;;;;5034629;28;20041;-78
2020/12/04 11:31:01;;;;;;;23.70;14.63;;;22.10;40.50;;;;;;5035811;28;20046;-77
2020/12/04 11:33:28;;;;;;;21.75;14.20;;;22.20;40.60;;;;;;5036457;28;20053;-78
2020/12/04 11:35:56;;;;;;;20.52;13.23;;;22.10;40.50;;;;;;5045741;28;20049;-77
2020/12/04 11:38:23;;;;;;;21.92;13.23;;;22.20;40.50;;;;;;5035664;28;20046;-77
2020/12/04 11:40:49;;;;;;;24.58;14.30;;;22.10;40.40;;;;;;5035625;28;20056;-79
2020/12/04 11:43:16;;;;;;;23.92;14.48;;;22.20;40.50;;;;;;5034582;28;20068;-79
2020/12/04 11:45:42;;;;;;;22.38;14.07;;;22.20;40.50;;;;;;5035588;28;20054;-78
2020/12/04 11:48:09;;;;;;;24.98;14.02;;;22.20;40.40;;;;;;5034126;28;20056;-78
2020/12/04 11:50:36;;;;;;;26.52;14.13;;;22.10;40.40;;;;;;5033961;28;20049;-76
2020/12/04 11:53:03;;;;;;;22.92;13.85;;;22.20;40.40;;;;;;5035244;28;20423;-79
2020/12/04 11:55:29;;;;;;;20.80;13.10;;;22.20;40.40;;;;;;5036666;28;20052;-79
2020/12/04 11:57:56;;;;;;;23.95;14.70;;;22.20;40.40;;;;;;5040136;28;20049;-80
2020/12/04 12:00:22;;;;;;;25.42;14.48;;;22.20;40.40;;;;;;5035189;28;20139;-80
2020/12/04 12:02:49;;;;;;;23.92;13.75;;;22.20;40.40;;;;;;5040690;28;20052;-80
2020/12/04 12:05:15;;;;;;;41.22;15.38;;;22.20;40.30;;;;;;5048330;28;20053;-80
2020/12/04 12:07:42;;;;;;;21.85;13.95;;;22.20;40.30;;;;;;5037412;28;20413;-79
2020/12/04 12:10:09;;;;;;;24.55;14.63;;;22.20;40.30;;;;;;5040104;28;20052;-79
2020/12/04 12:12:36;;;;;;;28.75;15.70;;;22.20;40.30;;;;;;5033735;28;20454;-80
2020/12/04 12:15:04;;;;;;;22.48;13.63;;;22.20;40.30;;;;;;5034670;28;20565;-79
2020/12/04 12:17:31;;;;;;;31.20;14.45;;;22.20;40.30;;;;;;5033541;28;20564;-80
2020/12/04 12:19:58;;;;;;;28.55;15.40;;;22.20;40.30;;;;;;5034500;28;20055;-80
2020/12/04 12:22:25;;;;;;;28.60;15.32;;;22.20;40.30;;;;;;5041850;28;20139;-80
2020/12/04 12:24:51;;;;;;;21.48;14.90;;;22.20;40.40;;;;;;5043041;28;20053;-79
2020/12/04 12:27:18;;;;;;;30.52;16.38;;;22.20;40.40;;;;;;5034706;28;20056;-80
2020/12/04 12:29:45;;;;;;;34.55;17.25;;;22.10;40.40;;;;;;5033365;28;20053;-80
2020/12/04 12:32:12;;;;;;;31.92;17.45;;;22.10;40.40;;;;;;5033304;28;20069;-75
2020/12/04 12:37:25;;;;;;;30.27;17.30;;;22.00;40.30;;;;;;5034285;28;20525;-79
2020/12/04 12:39:52;;;;;;;32.35;16.35;;;22.00;40.40;;;;;;5034166;28;20057;-79
2020/12/04 12:42:18;;;;;;;31.73;17.40;;;22.00;40.40;;;;;;5033328;28;20045;-79
2020/12/04 12:44:46;;;;;;;29.92;16.90;;;22.00;40.40;;;;;;5032850;28;20045;-79
2020/12/04 12:47:14;;;;;;;30.23;16.33;;;22.00;40.40;;;;;;5033191;28;20054;-78
2020/12/04 12:49:41;;;;;;;27.77;16.30;;;22.00;40.40;;;;;;5034917;28;20050;-81
2020/12/04 12:52:08;;;;;;;26.45;15.95;;;21.90;40.30;;;;;;5045123;28;20045;-81
2020/12/04 12:54:35;;;;;;;30.95;16.98;;;21.90;40.40;;;;;;5046589;28;20056;-82
2020/12/04 12:57:03;;;;;;;31.75;17.77;;;21.90;40.30;;;;;;5051623;28;20391;-82
2020/12/04 12:59:30;;;;;;;26.52;15.55;;;21.90;40.40;;;;;;5039806;28;20068;-81
2020/12/04 13:01:57;;;;;;;27.25;16.95;;;21.90;40.40;;;;;;5045091;28;20053;-82
2020/12/04 13:04:24;;;;;;;26.92;16.10;;;21.90;40.40;;;;;;5045902;28;20099;-82
2020/12/04 13:06:52;;;;;;;28.02;16.70;;;21.90;40.30;;;;;;5041335;28;20049;-81
2020/12/04 13:09:20;;;;;;;29.30;15.15;;;21.90;40.30;;;;;;5041373;28;20060;-82
2020/12/04 13:11:47;;;;;;;29.80;17.33;;;21.90;40.40;;;;;;5044045;28;20041;-81
2020/12/04 13:14:15;;;;;;;27.70;16.08;;;21.90;40.30;;;;;;5036385;28;20049;-81
2020/12/04 13:16:44;;;;;;;27.65;16.27;;;21.90;40.30;;;;;;5043540;28;20060;-82
2020/12/04 13:19:12;;;;;;;27.95;17.05;;;22.00;40.30;;;;;;5037252;28;20053;-81
2020/12/04 13:24:32;;;;;;;26.23;16.58;;;21.90;40.30;;;;;;5033406;28;20045;-83
2020/12/04 13:27:01;;;;;;;26.02;15.65;;;21.90;40.30;;;;;;5032643;28;20053;-81
2020/12/04 13:29:29;;;;;;;24.80;16.05;;;22.00;40.30;;;;;;5042546;28;20466;-82
2020/12/04 13:31:58;;;;;;;26.17;16.10;;;22.00;40.30;;;;;;5036542;28;20084;-81
2020/12/04 13:34:25;;;;;;;29.33;16.02;;;22.00;40.30;;;;;;5033444;28;20053;-82
2020/12/04 13:36:52;;;;;;;29.98;16.67;;;22.00;40.20;;;;;;5032442;28;20064;-81
2020/12/04 13:39:22;;;;;;;25.08;15.95;;;22.00;40.20;;;;;;5033489;28;20095;-81
2020/12/04 13:41:52;;;;;;;30.10;16.98;;;22.00;40.30;;;;;;5035267;28;20516;-81
2020/12/04 13:44:19;;;;;;;26.02;16.20;;;22.00;40.20;;;;;;5042767;28;20053;-81
2020/12/04 13:46:47;;;;;;;27.65;15.75;;;22.00;40.80;;;;;;5049565;28;20501;-80
2020/12/04 13:49:20;;;;;;;26.05;16.95;;;22.00;40.20;;;;;;5053143;28;20049;-82
2020/12/04 13:51:47;;;;;;;26.42;17.23;;;22.00;40.20;;;;;;5052181;28;20493;-81
2020/12/04 13:54:14;;;;;;;26.55;16.92;;;22.00;40.20;;;;;;5051583;28;20049;-82
2020/12/04 13:56:42;;;;;;;28.05;16.58;;;22.00;40.20;;;;;;5051194;28;20055;-81
2020/12/04 13:59:09;;;;;;;27.13;16.30;;;22.00;40.20;;;;;;5033307;28;20053;-81
2020/12/04 14:01:40;;;;;;;27.45;17.00;;;22.00;40.20;;;;;;5038778;28;20052;-81
2020/12/04 14:04:08;;;;;;;28.17;16.27;;;22.00;40.20;;;;;;5055603;28;20437;-79
2020/12/04 14:06:35;;;;;;;26.73;17.75;;;22.00;40.20;;;;;;5048030;28;20190;-83
2020/12/04 14:09:04;;;;;;;29.77;16.58;;;22.00;40.20;;;;;;5049181;28;20135;-81
2020/12/04 14:11:32;;;;;;;31.25;17.00;;;22.00;40.20;;;;;;5052126;28;20093;-83
2020/12/04 14:13:59;;;;;;;30.90;17.63;;;22.00;40.20;;;;;;5053256;28;20053;-80
2020/12/04 14:16:26;;;;;;;29.55;17.35;;;22.00;40.10;;;;;;5048482;28;20048;-79
2020/12/04 14:18:53;;;;;;;32.00;17.42;;;22.00;40.10;;;;;;5051623;28;20044;-81
2020/12/04 14:21:19;;;;;;;30.60;17.33;;;22.00;40.10;;;;;;5042986;28;20136;-81
2020/12/04 14:23:46;;;;;;;40.33;18.63;;;22.00;40.10;;;;;;5032386;28;20129;-80
2020/12/04 14:26:12;;;;;;;29.73;18.05;;;22.00;40.10;;;;;;5043149;28;20053;-81
2020/12/04 14:28:39;;;;;;;29.73;17.10;;;22.00;40.10;;;;;;5055768;28;20049;-81
2020/12/04 14:31:07;;;;;;;27.83;17.40;;;22.00;40.10;;;;;;5055031;28;20055;-80
2020/12/04 14:33:33;;;;;;;30.50;16.95;;;22.00;40.10;;;;;;5040095;28;20045;-79
2020/12/04 14:36:00;;;;;;;34.15;18.25;;;22.00;40.20;;;;;;5047862;28;20049;-80
2020/12/04 14:41:12;;;;;;;27.17;17.00;;;22.10;40.40;;;;;;5041826;28;20084;-81
2020/12/04 14:43:40;;;;;;;31.98;17.27;;;22.10;40.40;;;;;;5044830;28;20049;-79
2020/12/04 14:46:09;;;;;;;28.48;17.15;;;22.10;40.40;;;;;;5038537;28;20045;-79
2020/12/04 14:48:37;;;;;;;29.92;16.55;;;22.10;40.50;;;;;;5045651;28;20116;-80
2020/12/04 14:51:04;;;;;;;29.70;17.67;;;22.20;40.50;;;;;;5055139;28;20052;-79
2020/12/04 14:53:31;;;;;;;30.52;17.05;;;22.10;40.40;;;;;;5048642;28;20057;-79
2020/12/04 14:56:00;;;;;;;32.03;17.42;;;22.20;40.50;;;;;;5046083;28;20052;-80
2020/12/04 14:58:29;;;;;;;31.77;17.33;;;22.20;40.60;;;;;;5051742;28;20087;-78
2020/12/04 15:00:56;;;;;;;32.05;17.73;;;22.20;40.50;;;;;;5052827;28;20048;-79
2020/12/04 15:03:22;;;;;;;24.88;16.50;;;22.20;40.50;;;;;;5042046;28;20128;-79
2020/12/04 15:05:49;;;;;;;27.55;17.38;;;22.20;40.50;;;;;;5047958;28;20041;-81
2020/12/04 15:08:16;;;;;;;30.52;17.80;;;22.20;40.60;;;;;;5050380;28;20061;-80
2020/12/04 15:10:42;;;;;;;31.52;16.83;;;22.20;40.60;;;;;;5051455;28;20053;-80
2020/12/04 15:13:10;;;;;;;27.67;17.95;;;22.20;40.50;;;;;;5042734;28;20053;-80
2020/12/04 15:15:37;;;;;;;26.15;16.63;;;22.20;40.50;;;;;;5054971;28;20055;-81
2020/12/04 15:18:04;;;;;;;31.30;17.60;;;22.20;40.50;;;;;;5054578;28;20127;-82
2020/12/04 15:20:30;;;;;;;34.78;17.33;;;22.20;40.50;;;;;;5045451;28;20049;-81
2020/12/04 15:22:57;;;;;;;28.95;17.45;;;22.20;40.50;;;;;;5047502;28;20086;-81
2020/12/04 15:25:23;;;;;;;31.25;18.05;;;22.20;40.50;;;;;;5060047;28;20068;-79
2020/12/04 15:27:50;;;;;;;29.55;17.80;;;22.30;40.50;;;;;;5038360;28;20048;-79
2020/12/04 15:30:16;;;;;;;29.63;18.13;;;22.20;40.50;;;;;;5048844;28;20049;-81
2020/12/04 15:32:43;;;;;;;30.90;17.15;;;22.20;40.40;;;;;;5069202;28;20063;-79
2020/12/04 15:35:09;;;;;;;29.30;18.30;;;22.30;40.50;;;;;;5043972;28;20045;-82
2020/12/04 15:37:36;;;;;;;28.85;19.05;;;22.20;40.40;;;;;;5040766;28;20049;-82
2020/12/04 15:40:03;;;;;;;33.35;18.30;;;22.20;40.50;;;;;;5053325;28;20069;-80
2020/12/04 15:42:30;;;;;;;38.50;17.95;;;22.30;40.50;;;;;;5035092;28;20045;-81
2020/12/04 15:44:57;;;;;;;30.63;18.10;;;22.20;40.40;;;;;;5035565;28;20053;-80
2020/12/04 15:47:23;;;;;;;28.05;17.98;;;22.20;40.40;;;;;;5034336;28;20060;-81
2020/12/04 15:49:50;;;;;;;31.38;17.63;;;22.30;40.50;;;;;;5037267;28;20052;-81
2020/12/04 15:52:17;;;;;;;29.40;17.30;;;22.30;40.50;;;;;;5046917;28;20041;-78
2020/12/04 15:54:43;;;;;;;27.88;17.35;;;22.30;40.50;;;;;;5048879;28;20056;-77
2020/12/04 15:57:09;;;;;;;33.75;17.80;;;22.30;40.50;;;;;;5051420;28;20410;-79
2020/12/04 15:59:36;;;;;;;31.25;18.17;;;22.30;40.50;;;;;;5052270;28;20053;-81
2020/12/04 16:02:02;;;;;;;31.52;17.75;;;22.30;40.50;;;;;;5041412;28;20049;-80
2020/12/04 16:04:32;;;;;;;27.98;17.75;;;22.30;40.60;;;;;;5044567;28;20041;-82
2020/12/04 16:07:02;;;;;;;29.27;18.23;;;22.30;40.60;;;;;;5042390;28;20494;-81
2020/12/04 16:09:29;;;;;;;30.60;18.05;;;22.30;40.60;;;;;;5038393;28;20049;-79
2020/12/04 16:11:55;;;;;;;31.40;17.85;;;22.30;40.60;;;;;;5039202;28;20083;-81
2020/12/04 16:14:22;;;;;;;32.45;18.38;;;22.30;40.60;;;;;;5040311;28;20426;-75
2020/12/04 16:16:50;;;;;;;40.08;17.58;;;22.30;40.60;;;;;;5034899;28;20045;-79
2020/12/04 16:19:18;;;;;;;32.38;16.40;;;22.30;40.60;;;;;;5040249;28;20045;-80
2020/12/04 16:21:49;;;;;;;27.00;16.73;;;22.30;40.60;;;;;;5048111;28;20041;-80
2020/12/04 16:24:17;;;;;;;29.08;18.10;;;22.30;40.60;;;;;;5044659;28;20818;-83
2020/12/04 16:26:44;;;;;;;27.90;18.02;;;22.30;40.60;;;;;;5037581;28;20409;-76
2020/12/04 16:29:13;;;;;;;29.30;17.33;;;22.30;40.60;;;;;;5048498;28;20067;-88
2020/12/04 16:31:39;;;;;;;37.50;19.20;;;22.30;40.70;;;;;;5038599;28;20045;-88
2020/12/04 16:34:08;;;;;;;26.63;17.80;;;22.30;40.70;;;;;;5033752;28;20049;-84
2020/12/04 16:36:40;;;;;;;35.73;19.40;;;22.30;40.60;;;;;;5056012;28;20397;-78
2020/12/04 16:39:07;;;;;;;37.40;18.48;;;22.40;40.60;;;;;;5041005;28;20041;-86
2020/12/04 16:41:43;;;;;;;31.13;18.08;;;22.30;40.60;;;;;;5043373;28;20051;-87
2020/12/04 16:44:13;;;;;;;36.35;18.55;;;22.30;40.60;;;;;;5046517;28;20049;-88
2020/12/04 16:46:40;;;;;;;33.47;18.10;;;22.30;40.70;;;;;;5040663;28;20072;-88
2020/12/04 16:49:08;;;;;;;46.58;19.02;;;22.30;40.70;;;;;;5058261;28;20052;-88
2020/12/04 16:51:35;;;;;;;36.30;17.90;;;22.30;40.70;;;;;;5048112;28;20056;-87
2020/12/04 16:54:03;;;;;;;35.45;18.85;;;22.40;40.80;;;;;;5049893;28;20053;-89
2020/12/04 16:56:34;;;;;;;31.35;17.55;;;22.30;40.80;;;;;;5034523;28;20515;-86
2020/12/04 16:59:01;;;;;;;41.63;19.13;;;22.30;41.30;;;;;;5038443;28;20045;-85
2020/12/04 17:01:29;;;;;;;54.53;21.40;;;22.30;42.10;;;;;;5037509;28;20101;-85
2020/12/04 17:03:56;;;;;;;37.47;18.40;;;22.30;42.40;;;;;;5041777;28;20578;-84
2020/12/04 17:06:23;;;;;;;37.45;18.42;;;22.30;42.40;;;;;;5064823;28;20067;-87
2020/12/04 17:08:50;;;;;;;37.95;18.55;;;22.30;42.20;;;;;;5050475;28;20044;-81
2020/12/04 17:11:17;;;;;;;38.13;19.10;;;22.30;42.50;;;;;;5046652;28;20072;-82
2020/12/04 17:13:44;;;;;;;43.28;19.50;;;22.30;43.00;;;;;;5051071;28;20055;-89
2020/12/04 17:16:13;;;;;;;37.58;18.23;;;22.40;43.30;;;;;;5047143;28;20049;-88
2020/12/04 17:18:40;;;;;;;39.38;19.10;;;22.30;43.30;;;;;;5046617;28;20102;-87
2020/12/04 17:21:07;;;;;;;33.15;18.70;;;22.40;43.30;;;;;;5049183;28;20056;-89
2020/12/04 17:23:37;;;;;;;33.72;18.73;;;22.40;43.10;;;;;;5047995;28;20045;-88
2020/12/04 17:26:09;;;;;;;36.53;18.75;;;22.40;43.10;;;;;;5038078;28;20055;-89
2020/12/04 17:28:38;;;;;;;30.33;17.02;;;22.40;43.00;;;;;;5038119;28;20041;-86
2020/12/04 17:31:05;;;;;;;35.13;18.48;;;22.40;42.90;;;;;;5052985;28;20512;-89
2020/12/04 17:33:32;;;;;;;33.30;18.17;;;22.40;42.80;;;;;;5048027;28;20056;-83
2020/12/04 17:35:59;;;;;;;83.20;18.02;;;22.40;42.60;;;;;;5040988;28;20065;-83
2020/12/04 17:38:26;;;;;;;43.28;19.55;;;22.40;42.60;;;;;;5051397;28;20045;-77
2020/12/04 17:40:53;;;;;;;45.70;18.52;;;22.40;42.60;;;;;;5032772;28;20042;-77
2020/12/04 17:43:23;;;;;;;47.05;18.55;;;22.40;42.40;;;;;;5050985;28;20098;-79
2020/12/04 17:45:49;;;;;;;42.55;18.60;;;22.40;42.40;;;;;;5033327;28;20060;-85
2020/12/04 17:48:19;;;;;;;40.45;19.58;;;22.40;42.40;;;;;;5045192;28;20056;-81
2020/12/04 17:50:45;;;;;;;33.90;18.92;;;22.40;42.40;;;;;;5045564;28;20047;-80
2020/12/04 17:53:13;;;;;;;41.92;19.50;;;22.40;42.40;;;;;;5047417;28;20052;-79
2020/12/04 17:55:40;;;;;;;39.35;18.70;;;22.40;42.40;;;;;;5045620;28;20045;-78
2020/12/04 17:58:07;;;;;;;42.85;19.88;;;22.40;42.40;;;;;;5047956;28;20071;-79
2020/12/04 18:00:34;;;;;;;38.47;18.00;;;22.40;42.50;;;;;;5038201;28;20064;-78
2020/12/04 18:03:02;;;;;;;39.50;21.02;;;22.40;42.50;;;;;;5036409;28;20040;-81
2020/12/04 18:05:29;;;;;;;32.50;19.13;;;22.40;42.50;;;;;;5033612;28;20082;-78
2020/12/04 18:07:56;;;;;;;36.92;19.67;;;22.40;42.60;;;;;;5042996;28;20136;-79
2020/12/04 18:10:23;;;;;;;35.80;19.00;;;22.40;42.50;;;;;;5034311;28;20056;-78
2020/12/04 18:12:50;;;;;;;34.97;19.25;;;22.40;42.60;;;;;;5037699;28;20392;-80
2020/12/04 18:15:17;;;;;;;34.05;19.55;;;22.40;42.80;;;;;;5042702;28;20059;-78
2020/12/04 18:17:47;;;;;;;35.72;19.95;;;22.40;42.80;;;;;;5035292;28;20049;-81
2020/12/04 18:20:14;;;;;;;44.08;20.83;;;22.40;42.80;;;;;;5048566;28;20047;-81
2020/12/04 18:22:41;;;;;;;39.25;20.85;;;22.50;42.90;;;;;;5047728;28;20050;-81
2020/12/04 18:25:08;;;;;;;41.60;20.63;;;22.50;43.10;;;;;;5032663;28;20045;-82
2020/12/04 18:27:35;;;;;;;45.22;21.40;;;22.50;43.20;;;;;;5047295;28;20041;-81
2020/12/04 18:30:05;;;;;;;37.42;20.13;;;22.50;43.20;;;;;;5031943;28;20047;-79
2020/12/04 18:32:32;;;;;;;41.40;20.75;;;22.50;43.20;;;;;;5043384;28;20077;-82
2020/12/04 18:34:59;;;;;;;36.00;19.60;;;22.50;43.40;;;;;;5042438;28;20045;-81
2020/12/04 18:37:26;;;;;;;48.20;20.30;;;22.50;43.60;;;;;;5047921;28;20091;-80
2020/12/04 18:39:52;;;;;;;34.55;19.83;;;22.50;43.50;;;;;;5050882;28;20413;-80
2020/12/04 18:42:21;;;;;;;40.75;22.33;;;22.50;43.50;;;;;;5047140;28;20044;-80
2020/12/04 18:44:48;;;;;;;44.40;21.45;;;22.50;43.70;;;;;;5048698;28;20528;-81
2020/12/04 18:47:16;;;;;;;36.97;21.60;;;22.50;43.80;;;;;;5049207;28;20053;-77